Time;durP1;ratioP1;P1;durP2;ratioP2;P2;SDS_P1;SDS_P2;PMS_P1;PMS_P2;Temp;Humidity;BMP_temperature;BMP_pressure;BME280_temperature;BME280_humidity;BME280_pressure;Samples;Min_cycle;Max_cycle;Signal;HPM_P1;HPM_P2
2021/10/21 00:01:48;;;;;;;1.63;1.53;;;;;;;9.82;95.42;98047.13;5013571;28;20036;-63
2021/10/21 00:04:14;;;;;;;2.60;1.60;;;;;;;9.70;95.48;98037.50;5012948;28;20069;-63
2021/10/21 00:06:39;;;;;;;1.77;1.67;;;;;;;9.74;95.40;98057.28;5012519;28;20469;-63
2021/10/21 00:09:05;;;;;;;1.47;1.37;;;;;;;9.75;95.26;98058.91;5012150;28;20462;-65
2021/10/21 00:11:31;;;;;;;1.50;1.40;;;;;;;9.76;95.00;98053.34;5011856;28;20042;-63
2021/10/21 00:13:57;;;;;;;1.30;1.20;;;;;;;9.74;95.53;98054.63;5011695;28;20044;-66
2021/10/21 00:16:22;;;;;;;2.60;1.63;;;;;;;9.73;95.00;98053.00;5011941;28;20042;-63
2021/10/21 00:18:49;;;;;;;1.60;1.50;;;;;;;9.73;95.24;98058.31;5012074;28;20046;-64
2021/10/21 00:21:15;;;;;;;1.90;1.80;;;;;;;9.76;95.19;98063.19;5013306;28;20033;-64
2021/10/21 00:23:40;;;;;;;3.97;1.50;;;;;;;9.71;95.32;98055.06;5015941;28;20172;-63
2021/10/21 00:26:09;;;;;;;1.63;1.40;;;;;;;9.73;94.70;98056.47;5014655;28;20037;-64
2021/10/21 00:28:35;;;;;;;2.45;2.25;;;;;;;9.69;94.83;98052.63;5015709;28;20038;-63
2021/10/21 00:31:00;;;;;;;2.70;1.93;;;;;;;9.60;95.20;98038.03;5015557;28;20045;-64
2021/10/21 00:33:26;;;;;;;1.77;1.67;;;;;;;9.63;94.90;98046.38;5015754;28;20038;-65
2021/10/21 00:35:51;;;;;;;2.47;2.00;;;;;;;9.71;94.75;98055.88;5015835;28;20505;-63
2021/10/21 00:38:17;;;;;;;2.80;2.50;;;;;;;9.68;95.03;98053.66;5015438;28;20520;-62
2021/10/21 00:40:42;;;;;;;2.90;2.40;;;;;;;9.72;94.92;98059.34;5015407;28;20057;-63
2021/10/21 00:43:08;;;;;;;2.53;2.33;;;;;;;9.71;95.26;98066.50;5015520;28;20033;-64
2021/10/21 00:45:33;;;;;;;2.80;2.33;;;;;;;9.65;95.02;98050.66;5015259;28;20092;-63
2021/10/21 00:47:58;;;;;;;2.13;1.93;;;;;;;9.74;95.43;98049.31;5015313;28;20033;-64
2021/10/21 00:50:25;;;;;;;2.07;1.87;;;;;;;9.79;94.86;98057.41;5015297;28;20049;-63
2021/10/21 00:52:51;;;;;;;3.10;2.27;;;;;;;9.80;95.05;98059.03;5015239;28;20038;-63
2021/10/21 00:55:16;;;;;;;4.87;2.23;;;;;;;9.82;94.81;98059.63;5015190;28;20084;-64
2021/10/21 00:57:42;;;;;;;2.27;1.97;;;;;;;9.84;95.17;98061.03;5015323;28;20124;-65
2021/10/21 01:00:08;;;;;;;4.13;1.63;;;;;;;9.87;95.00;98065.91;5015068;28;20038;-64
2021/10/21 01:02:33;;;;;;;1.80;1.70;;;;;;;9.88;95.10;98066.72;5014908;28;20096;-61
2021/10/21 01:04:59;;;;;;;2.43;2.07;;;;;;;9.83;94.68;98070.06;5015287;28;20484;-62
2021/10/21 01:07:24;;;;;;;3.43;1.80;;;;;;;9.86;94.96;98079.44;5015185;28;20045;-64
2021/10/21 01:09:51;;;;;;;2.93;1.53;;;;;;;9.84;94.78;98071.69;5014816;28;20049;-62
2021/10/21 01:12:16;;;;;;;1.80;1.40;;;;;;;9.84;94.75;98066.38;5014843;28;20034;-61
2021/10/21 01:14:43;;;;;;;3.50;1.63;;;;;;;9.86;94.93;98085.56;5014925;28;20045;-63
2021/10/21 01:17:08;;;;;;;2.17;1.60;;;;;;;9.86;94.63;98087.41;5015036;28;20042;-63
2021/10/21 01:19:33;;;;;;;2.07;1.67;;;;;;;9.86;95.00;98087.41;5014630;28;20046;-63
2021/10/21 01:22:01;;;;;;;2.63;1.63;;;;;;;9.82;94.93;98087.00;5014929;28;20026;-64
2021/10/21 01:24:26;;;;;;;2.20;1.70;;;;;;;9.82;94.62;98102.16;5014753;28;20045;-64
2021/10/21 01:26:53;;;;;;;3.00;1.90;;;;;;;9.77;94.50;98091.38;5015374;28;20437;-63
2021/10/21 01:29:22;;;;;;;2.03;1.60;;;;;;;9.78;94.58;98100.97;5014673;28;20032;-63
2021/10/21 01:31:49;;;;;;;1.70;1.40;;;;;;;9.79;94.46;98116.69;5014608;28;20045;-63
2021/10/21 01:34:15;;;;;;;1.70;1.40;;;;;;;9.72;94.85;98107.19;5013843;28;20083;-63
2021/10/21 01:36:43;;;;;;;2.70;1.70;;;;;;;9.81;94.62;98116.47;5015240;28;20034;-66
2021/10/21 01:39:11;;;;;;;2.22;1.98;;;;;;;9.79;94.75;98111.38;5015299;28;20081;-62
2021/10/21 01:41:36;;;;;;;2.07;1.80;;;;;;;9.80;94.64;98120.97;5015943;28;20056;-63
2021/10/21 01:44:02;;;;;;;2.87;1.53;;;;;;;9.80;94.42;98125.47;5015412;28;20494;-63
2021/10/21 01:46:28;;;;;;;2.60;1.83;;;;;;;9.77;94.69;98116.09;5015285;28;20037;-63
2021/10/21 01:48:53;;;;;;;2.30;1.73;;;;;;;9.82;94.46;98110.13;5013949;28;20045;-62
2021/10/21 01:51:18;;;;;;;2.70;1.67;;;;;;;9.85;94.30;98104.38;5014947;28;20038;-61
2021/10/21 01:53:44;;;;;;;1.33;1.23;;;;;;;9.84;94.64;98102.78;5014608;28;20034;-65
2021/10/21 01:56:10;;;;;;;3.10;1.50;;;;;;;9.90;94.56;98101.88;5015026;28;20034;-63
2021/10/21 01:58:35;;;;;;;1.90;1.60;;;;;;;9.94;94.33;98111.03;5014772;28;20036;-64
2021/10/21 02:01:01;;;;;;;2.17;1.97;;;;;;;9.96;94.63;98106.28;5015338;28;20034;-62
2021/10/21 02:03:27;;;;;;;3.97;1.77;;;;;;;9.97;94.05;98105.25;5015274;28;20179;-62
2021/10/21 02:05:52;;;;;;;3.77;1.70;;;;;;;10.02;94.49;98100.06;5014498;28;20030;-64
2021/10/21 02:08:18;;;;;;;2.47;1.20;;;;;;;10.00;94.25;98094.16;5014011;28;20038;-63
2021/10/21 02:10:44;;;;;;;1.80;1.30;;;;;;;9.90;94.53;98078.75;5013772;28;20467;-63
2021/10/21 02:13:09;;;;;;;1.50;1.40;;;;;;;10.09;94.33;98108.78;5013795;28;20030;-63
2021/10/21 02:15:35;;;;;;;1.67;1.57;;;;;;;10.10;93.93;98112.25;5013824;28;20034;-63
2021/10/21 02:18:00;;;;;;;5.37;1.63;;;;;;;10.17;93.84;98103.16;5013978;28;20038;-64
2021/10/21 02:20:25;;;;;;;2.20;1.40;;;;;;;10.23;94.20;98110.28;5013371;28;20034;-67
2021/10/21 02:22:51;;;;;;;2.17;1.70;;;;;;;10.26;93.96;98110.84;5014303;28;20050;-66
2021/10/21 02:25:18;;;;;;;2.23;1.50;;;;;;;10.24;93.78;98106.56;5014109;28;20083;-62
2021/10/21 02:27:44;;;;;;;1.70;1.60;;;;;;;10.28;94.12;98106.94;5013767;28;20485;-63
2021/10/21 02:30:12;;;;;;;2.43;1.70;;;;;;;10.27;94.01;98109.81;5013675;28;20092;-65
2021/10/21 02:32:39;;;;;;;1.50;1.33;;;;;;;10.28;93.61;98119.41;5013544;28;20512;-63
2021/10/21 02:35:05;;;;;;;1.53;1.40;;;;;;;10.08;93.59;98079.75;5013712;28;20045;-64
2021/10/21 02:37:31;;;;;;;2.47;1.87;;;;;;;10.33;93.59;98114.22;5013367;28;20064;-65
2021/10/21 02:39:56;;;;;;;2.43;2.23;;;;;;;10.33;93.50;98122.22;5013057;28;20493;-63
2021/10/21 02:42:21;;;;;;;2.13;1.67;;;;;;;10.33;93.63;98112.38;5013461;28;20041;-64
2021/10/21 02:44:47;;;;;;;2.10;1.80;;;;;;;10.34;93.90;98123.84;5012412;28;20054;-64
2021/10/21 02:47:13;;;;;;;2.23;2.00;;;;;;;10.34;93.27;98121.19;5013286;28;20092;-62
2021/10/21 02:49:38;;;;;;;3.03;1.97;;;;;;;10.37;93.60;98123.38;5013087;28;20497;-61
2021/10/21 02:52:04;;;;;;;2.77;2.17;;;;;;;10.37;93.64;98131.38;5013233;28;20401;-61
2021/10/21 02:54:30;;;;;;;2.47;2.27;;;;;;;10.34;93.07;98126.50;5012909;28;20094;-62
2021/10/21 02:56:56;;;;;;;2.77;2.57;;;;;;;10.35;93.67;98128.13;5013308;28;20501;-63
2021/10/21 02:59:21;;;;;;;2.93;2.50;;;;;;;10.24;93.59;98109.22;5012895;28;20048;-62
2021/10/21 03:01:47;;;;;;;3.37;2.27;;;;;;;10.36;93.72;98132.41;5012926;28;20033;-65
2021/10/21 03:04:13;;;;;;;4.93;2.80;;;;;;;10.39;93.52;98137.28;5012565;28;20123;-64
2021/10/21 03:06:39;;;;;;;4.37;2.50;;;;;;;10.38;93.55;98131.13;5012905;28;20052;-63
2021/10/21 03:09:04;;;;;;;3.73;2.90;;;;;;;10.37;93.48;98140.16;5012607;28;20560;-63
2021/10/21 03:11:30;;;;;;;3.37;2.57;;;;;;;10.38;93.45;98140.97;5012631;28;20084;-63
2021/10/21 03:13:55;;;;;;;2.50;2.20;;;;;;;10.38;93.24;98140.97;5013145;28;20041;-63
2021/10/21 03:16:21;;;;;;;2.83;2.50;;;;;;;10.40;93.05;98138.88;5013010;28;20042;-63
2021/10/21 03:18:46;;;;;;;2.50;2.30;;;;;;;10.38;92.91;98140.97;5013451;28;20037;-64
2021/10/21 03:21:11;;;;;;;3.07;2.77;;;;;;;10.40;92.75;98139.69;5011501;28;20128;-64
2021/10/21 03:23:37;;;;;;;4.17;3.20;;;;;;;10.38;92.36;98140.97;5013025;28;20042;-65
2021/10/21 03:26:02;;;;;;;3.73;3.03;;;;;;;10.40;92.81;98149.53;5012755;28;20583;-62
2021/10/21 03:28:28;;;;;;;4.33;3.10;;;;;;;10.42;92.92;98153.63;5011502;28;20034;-63
2021/10/21 03:30:53;;;;;;;4.20;2.50;;;;;;;10.41;92.39;98156.50;5012383;28;20512;-64
2021/10/21 03:33:18;;;;;;;2.77;2.40;;;;;;;10.42;92.27;98152.81;5012555;28;20033;-64
2021/10/21 03:35:44;;;;;;;4.80;3.90;;;;;;;10.40;91.91;98153.00;5012279;28;20121;-64
2021/10/21 03:38:09;;;;;;;4.33;2.60;;;;;;;10.40;91.19;98149.53;5012045;28;20030;-64
2021/10/21 03:40:36;;;;;;;3.40;3.10;;;;;;;10.37;91.73;98144.66;5012521;28;20034;-65
2021/10/21 03:43:01;;;;;;;3.40;2.93;;;;;;;10.35;91.67;98136.91;5012236;28;20044;-63
2021/10/21 03:45:27;;;;;;;4.77;2.83;;;;;;;10.37;91.40;98142.00;5011067;28;20037;-64
2021/10/21 03:47:52;;;;;;;9.63;7.80;;;;;;;10.36;90.80;98145.72;5012397;28;20129;-64
2021/10/21 03:50:17;;;;;;;6.27;2.63;;;;;;;10.30;90.58;98133.31;5012226;28;20096;-63
2021/10/21 03:52:43;;;;;;;5.90;3.17;;;;;;;10.30;90.72;98139.44;5011911;28;20207;-63
2021/10/21 03:55:09;;;;;;;4.13;2.47;;;;;;;10.17;90.19;98145.72;5012248;28;20057;-64
2021/10/21 03:57:34;;;;;;;7.47;3.67;;;;;;;10.15;90.62;98150.44;5011978;28;20084;-65
2021/10/21 04:00:00;;;;;;;3.03;2.57;;;;;;;10.17;90.90;98153.69;5010822;28;20061;-66
2021/10/21 04:02:25;;;;;;;7.47;3.07;;;;;;;10.18;90.62;98157.97;5012142;28;20109;-64
2021/10/21 04:04:50;;;;;;;8.70;3.37;;;;;;;10.20;90.56;98150.63;5010774;28;20516;-63
2021/10/21 04:07:16;;;;;;;3.37;2.90;;;;;;;10.17;89.93;98151.03;5011282;28;20045;-63
2021/10/21 04:09:42;;;;;;;6.97;4.00;;;;;;;10.24;90.56;98157.13;5012084;28;20069;-67
2021/10/21 04:12:07;;;;;;;4.50;3.33;;;;;;;10.27;90.49;98160.34;5012154;28;20100;-65
2021/10/21 04:14:33;;;;;;;5.43;3.43;;;;;;;10.26;90.90;98162.22;5012320;28;20034;-70
2021/10/21 04:16:58;;;;;;;5.20;3.40;;;;;;;10.20;89.78;98147.97;5012855;28;20081;-72
2021/10/21 04:19:24;;;;;;;5.07;4.00;;;;;;;10.28;90.28;98167.31;5011719;28;20495;-70
2021/10/21 04:21:49;;;;;;;8.70;4.17;;;;;;;10.30;90.00;98163.38;5011970;28;20025;-70
2021/10/21 04:24:14;;;;;;;7.33;3.30;;;;;;;10.30;89.90;98165.22;5010768;28;20382;-71
2021/10/21 04:26:40;;;;;;;6.83;3.73;;;;;;;10.36;88.88;98164.31;5013047;28;20034;-66
2021/10/21 04:29:05;;;;;;;6.47;3.63;;;;;;;10.30;88.98;98154.59;5012135;28;20065;-67
2021/10/21 04:31:31;;;;;;;7.57;4.10;;;;;;;10.33;89.58;98164.78;5012026;28;20033;-65
2021/10/21 04:33:57;;;;;;;6.93;4.20;;;;;;;10.31;89.53;98172.16;5012197;28;20041;-66
2021/10/21 04:36:23;;;;;;;10.40;4.40;;;;;;;10.29;89.12;98166.25;5012566;28;20543;-68
2021/10/21 04:38:48;;;;;;;8.10;4.60;;;;;;;10.27;89.43;98161.16;5012251;28;20061;-64
2021/10/21 04:41:14;;;;;;;10.03;4.83;;;;;;;10.27;89.32;98169.16;5011050;28;20448;-66
2021/10/21 04:43:39;;;;;;;10.10;5.40;;;;;;;10.21;89.33;98170.88;5011981;28;20033;-63
2021/10/21 04:46:05;;;;;;;7.90;4.50;;;;;;;10.19;88.65;98167.59;5012061;28;20092;-62
2021/10/21 04:48:30;;;;;;;7.17;3.77;;;;;;;10.21;88.42;98176.19;5010985;28;20488;-62
2021/10/21 04:50:55;;;;;;;7.93;4.43;;;;;;;10.22;88.93;98166.34;5012250;28;20092;-61
2021/10/21 04:53:21;;;;;;;10.37;5.50;;;;;;;10.18;89.08;98163.31;5012444;28;20069;-65
2021/10/21 04:55:46;;;;;;;7.83;4.37;;;;;;;10.17;89.16;98163.53;5013577;28;20121;-64
2021/10/21 04:58:12;;;;;;;6.10;4.63;;;;;;;10.17;89.14;98164.34;5012419;28;20116;-68
2021/10/21 05:00:37;;;;;;;8.60;5.07;;;;;;;10.07;89.13;98150.72;5011732;28;20120;-65
2021/10/21 05:03:07;;;;;;;9.47;5.67;;;;;;;10.13;89.27;98155.19;5011678;28;20065;-63
2021/10/21 05:05:33;;;;;;;9.73;5.37;;;;;;;10.12;88.83;98169.53;5011823;28;20084;-64
2021/10/21 05:07:59;;;;;;;9.93;5.20;;;;;;;10.16;88.99;98164.56;5010851;28;20503;-63
2021/10/21 05:10:24;;;;;;;8.63;5.47;;;;;;;10.19;89.67;98169.44;5015429;28;20063;-63
2021/10/21 05:12:49;;;;;;;6.07;4.37;;;;;;;10.19;88.84;98162.25;5015164;28;20057;-66
2021/10/21 05:15:15;;;;;;;11.10;6.97;;;;;;;10.11;88.81;98151.91;5014950;28;20030;-63
2021/10/21 05:17:40;;;;;;;10.50;5.27;;;;;;;10.23;89.00;98168.78;5014999;28;20120;-67
2021/10/21 05:20:06;;;;;;;9.40;5.37;;;;;;;10.23;88.56;98166.13;5014639;28;20515;-64
2021/10/21 05:22:31;;;;;;;7.37;5.17;;;;;;;10.24;88.26;98166.94;5014681;28;20038;-64
2021/10/21 05:24:57;;;;;;;8.10;4.80;;;;;;;10.26;89.02;98170.19;5015555;28;20571;-62
2021/10/21 05:27:22;;;;;;;8.63;4.90;;;;;;;10.28;88.63;98169.97;5017337;28;20121;-64
2021/10/21 05:29:48;;;;;;;11.50;4.97;;;;;;;10.27;87.93;98171.00;5015734;28;20116;-64
2021/10/21 05:32:13;;;;;;;10.20;4.87;;;;;;;10.24;87.96;98167.75;5014907;28;20092;-64
2021/10/21 05:34:40;;;;;;;6.70;4.77;;;;;;;10.23;87.29;98166.13;5015163;28;20061;-65
2021/10/21 05:37:06;;;;;;;6.40;5.20;;;;;;;10.26;88.31;98170.19;5014620;28;20038;-61
2021/10/21 05:39:32;;;;;;;7.83;5.80;;;;;;;10.21;88.03;98168.19;5014659;28;20048;-73
2021/10/21 05:41:58;;;;;;;8.03;4.93;;;;;;;10.32;87.88;98187.09;5015075;28;20439;-64
2021/10/21 05:44:25;;;;;;;10.43;5.20;;;;;;;10.29;88.06;98180.38;5014397;28;20042;-66
2021/10/21 05:46:50;;;;;;;9.07;5.67;;;;;;;10.37;87.91;98187.22;5014433;28;20050;-66
2021/10/21 05:49:17;;;;;;;7.47;4.90;;;;;;;10.37;87.38;98181.91;5014132;28;20512;-64
2021/10/21 05:51:43;;;;;;;7.23;5.50;;;;;;;10.39;87.30;98185.16;5014025;28;20100;-63
2021/10/21 05:54:08;;;;;;;10.93;5.87;;;;;;;10.47;86.83;98188.34;5014227;28;20033;-64
2021/10/21 05:56:33;;;;;;;11.40;4.90;;;;;;;10.50;86.26;98184.41;5014050;28;20038;-62
2021/10/21 05:58:59;;;;;;;9.10;5.23;;;;;;;10.52;86.89;98193.00;5013744;28;20091;-63
2021/10/21 06:01:24;;;;;;;10.27;6.57;;;;;;;10.49;87.19;98182.81;5014164;28;20045;-65
2021/10/21 06:03:49;;;;;;;14.47;6.53;;;;;;;10.49;86.53;98185.47;5014003;28;20050;-63
2021/10/21 06:06:18;;;;;;;9.37;6.03;;;;;;;10.51;86.14;98183.38;5013841;28;20404;-63
2021/10/21 06:08:45;;;;;;;10.80;6.03;;;;;;;10.58;86.38;98188.63;5013770;28;20124;-65
2021/10/21 06:11:11;;;;;;;11.80;6.23;;;;;;;10.61;86.67;98194.28;5014052;28;20492;-64
2021/10/21 06:13:37;;;;;;;10.13;7.07;;;;;;;10.61;86.46;98199.63;5012315;28;20034;-63
2021/10/21 06:16:04;;;;;;;17.10;7.63;;;;;;;10.59;86.84;98204.34;5013831;28;20041;-75
2021/10/21 06:18:29;;;;;;;11.77;5.63;;;;;;;10.65;86.91;98208.78;5013594;28;20115;-65
2021/10/21 06:20:55;;;;;;;10.63;6.00;;;;;;;10.62;87.25;98217.22;5011434;28;20474;-62
2021/10/21 06:23:21;;;;;;;8.50;5.67;;;;;;;10.61;86.60;98212.94;5013671;28;20045;-62
2021/10/21 06:25:47;;;;;;;15.63;6.93;;;;;;;10.69;86.33;98225.91;5011947;28;20038;-62
2021/10/21 06:28:12;;;;;;;13.77;5.37;;;;;;;10.70;85.67;98214.25;5013655;28;20048;-64
2021/10/21 06:30:38;;;;;;;11.63;5.90;;;;;;;10.74;85.58;98223.41;5012298;28;20445;-63
2021/10/21 06:33:04;;;;;;;10.33;5.70;;;;;;;10.75;85.84;98217.06;5012083;28;20034;-63
2021/10/21 06:35:30;;;;;;;6.93;5.20;;;;;;;10.77;85.47;98220.28;5013391;28;20038;-63
2021/10/21 06:37:55;;;;;;;12.77;5.43;;;;;;;10.79;85.28;98222.72;5012122;28;20038;-64
2021/10/21 06:40:30;;;;;;;10.13;6.33;;;;;;;10.62;85.80;98201.25;5013093;28;20038;-64
2021/10/21 06:42:55;;;;;;;10.33;6.33;;;;;;;10.70;85.90;98227.56;5012793;28;20038;-62
2021/10/21 06:45:22;;;;;;;8.80;5.53;;;;;;;10.79;85.77;98234.19;5013286;28;20065;-60
2021/10/21 06:47:47;;;;;;;9.60;5.33;;;;;;;10.88;84.77;98236.53;5012767;28;20037;-62
2021/10/21 06:50:13;;;;;;;10.33;5.70;;;;;;;10.98;84.87;98237.59;5012917;28;20037;-60
2021/10/21 06:52:40;;;;;;;13.10;6.00;;;;;;;11.04;85.06;98235.91;5013029;28;20069;-62
2021/10/21 06:55:06;;;;;;;8.97;5.53;;;;;;;11.13;84.85;98239.88;5012650;28;20076;-64
2021/10/21 06:57:32;;;;;;;18.20;6.53;;;;;;;11.07;84.55;98235.44;5011968;28;20168;-63
2021/10/21 06:59:57;;;;;;;8.80;6.57;;;;;;;10.93;84.58;98218.84;5012781;28;20136;-62
2021/10/21 07:02:23;;;;;;;13.73;5.80;;;;;;;11.06;84.53;98244.47;5012222;28;20449;-64
2021/10/21 07:04:49;;;;;;;12.30;5.83;;;;;;;11.10;84.94;98254.44;5012342;28;20037;-63
2021/10/21 07:07:14;;;;;;;9.17;7.00;;;;;;;11.11;84.40;98250.75;5011571;28;20034;-63
2021/10/21 07:09:40;;;;;;;9.10;5.60;;;;;;;11.15;83.00;98248.44;5012608;28;20061;-64
2021/10/21 07:12:05;;;;;;;13.07;6.20;;;;;;;11.18;84.13;98245.31;5012875;28;20481;-62
2021/10/21 07:14:34;;;;;;;9.73;5.70;;;;;;;11.28;84.08;98247.44;5012150;28;20360;-63
2021/10/21 07:16:59;;;;;;;8.88;5.45;;;;;;;11.32;83.65;98260.09;5011225;28;20038;-64
2021/10/21 07:19:25;;;;;;;6.97;4.90;;;;;;;11.38;83.87;98253.84;5012553;28;20048;-63
2021/10/21 07:21:50;;;;;;;9.43;5.40;;;;;;;11.40;83.58;98240.28;5009522;28;20397;-65
2021/10/21 07:24:16;;;;;;;11.20;5.53;;;;;;;11.45;82.48;98249.19;5011940;28;20128;-66
2021/10/21 07:26:42;;;;;;;10.23;6.00;;;;;;;11.45;83.23;98245.72;5012211;28;20034;-62
2021/10/21 07:29:08;;;;;;;11.80;6.10;;;;;;;11.45;83.23;98249.19;5012230;28;20038;-60
2021/10/21 07:31:33;;;;;;;7.27;5.47;;;;;;;11.40;82.70;98251.75;5011551;28;20041;-64
2021/10/21 07:33:59;;;;;;;9.80;5.97;;;;;;;11.40;82.04;98254.41;5011966;28;20041;-62
2021/10/21 07:36:24;;;;;;;8.37;5.27;;;;;;;11.45;81.58;98265.19;5012827;28;20088;-66
2021/10/21 07:38:50;;;;;;;9.20;5.27;;;;;;;11.46;81.71;98261.50;5012535;28;20038;-64
2021/10/21 07:41:18;;;;;;;9.93;5.60;;;;;;;11.53;82.07;98260.56;5012597;28;20061;-65
2021/10/21 07:43:43;;;;;;;10.23;5.33;;;;;;;11.56;81.80;98270.75;5012089;28;20041;-67
2021/10/21 07:46:08;;;;;;;8.30;5.20;;;;;;;11.53;80.64;98263.22;5012072;28;20029;-62
2021/10/21 07:48:34;;;;;;;11.60;6.70;;;;;;;11.68;81.10;98283.09;5011924;28;20412;-63
2021/10/21 07:50:59;;;;;;;17.23;13.67;;;;;;;11.76;80.78;98288.06;5012285;28;20497;-59
2021/10/21 07:53:26;;;;;;;12.47;10.33;;;;;;;11.76;79.14;98273.94;5011992;28;20069;-63
2021/10/21 07:55:52;;;;;;;10.07;6.20;;;;;;;11.83;79.13;98281.84;5012240;28;20444;-61
2021/10/21 07:58:17;;;;;;;9.27;4.73;;;;;;;11.91;78.63;98290.34;5011737;28;20064;-64
2021/10/21 08:00:44;;;;;;;9.70;5.27;;;;;;;11.86;78.12;98287.56;5011655;28;20034;-66
2021/10/21 08:03:09;;;;;;;8.47;5.23;;;;;;;11.89;77.96;98287.09;5011594;28;20062;-65
2021/10/21 08:05:34;;;;;;;9.73;4.60;;;;;;;11.91;77.57;98300.19;5012033;28;20034;-62
2021/10/21 08:08:03;;;;;;;6.40;4.23;;;;;;;11.92;77.20;98294.63;5011641;28;20049;-66
2021/10/21 08:10:29;;;;;;;12.40;4.60;;;;;;;11.99;77.53;98286.50;5011886;28;20034;-64
2021/10/21 08:12:54;;;;;;;7.67;4.43;;;;;;;11.98;77.24;98298.22;5011889;28;20485;-66
2021/10/21 08:15:20;;;;;;;11.17;4.30;;;;;;;11.61;76.83;98244.25;5010143;28;20100;-63
2021/10/21 08:17:45;;;;;;;7.93;4.60;;;;;;;11.91;77.24;98300.19;5011505;28;20038;-63
2021/10/21 08:20:12;;;;;;;9.77;4.03;;;;;;;11.81;77.34;98300.75;5011910;28;20128;-61
2021/10/21 08:22:42;;;;;;;7.50;4.40;;;;;;;11.71;77.29;98300.47;5011646;28;20187;-68
2021/10/21 08:25:08;;;;;;;7.97;3.73;;;;;;;11.68;77.55;98312.41;5011537;28;20095;-68
2021/10/21 08:27:34;;;;;;;9.50;4.97;;;;;;;11.69;77.78;98318.56;5011704;28;20073;-63
2021/10/21 08:30:01;;;;;;;15.17;11.00;;;;;;;11.72;77.75;98310.09;5011325;28;20544;-68
2021/10/21 08:32:26;;;;;;;12.90;7.13;;;;;;;11.72;77.52;98316.25;5011420;28;20046;-63
2021/10/21 08:34:52;;;;;;;10.83;6.57;;;;;;;11.58;77.53;98290.03;5011733;28;20037;-68
2021/10/21 08:37:18;;;;;;;10.30;7.07;;;;;;;11.56;77.77;98300.09;5011252;28;20038;-64
2021/10/21 08:39:44;;;;;;;11.17;6.00;;;;;;;11.49;78.71;98311.66;5011526;28;20065;-68
2021/10/21 08:42:10;;;;;;;10.57;6.03;;;;;;;11.43;79.92;98317.91;5011318;28;20113;-70
2021/10/21 08:44:37;;;;;;;10.03;5.30;;;;;;;11.39;80.47;98319.41;5015019;28;20033;-68
2021/10/21 08:47:05;;;;;;;15.53;5.17;;;;;;;11.37;80.60;98323.34;5015341;28;20033;-65
2021/10/21 08:49:32;;;;;;;6.10;4.15;;;;;;;11.40;80.73;98326.38;5013897;28;20065;-63
2021/10/21 08:51:57;;;;;;;9.77;5.27;;;;;;;11.41;80.31;98306.66;5014485;28;20092;-69
2021/10/21 08:54:23;;;;;;;9.27;5.00;;;;;;;11.45;80.29;98320.34;5015504;28;20037;-66
2021/10/21 08:56:48;;;;;;;6.73;4.43;;;;;;;11.34;79.49;98305.97;5015152;28;20038;-64
2021/10/21 08:59:14;;;;;;;9.33;4.00;;;;;;;11.48;78.60;98328.69;5014640;28;20042;-66
2021/10/21 09:01:51;;;;;;;14.57;5.83;;;;;;;11.58;77.80;98327.34;5015163;28;20029;-63
2021/10/21 09:04:26;;;;;;;8.67;4.73;;;;;;;11.61;77.28;98326.91;5015060;28;20084;-66
2021/10/21 09:09:22;;;;;;;7.60;3.60;;;;;;;11.70;75.77;98336.19;5015979;28;20044;-69
2021/10/21 09:12:03;;;;;;;7.13;3.50;;;;;;;11.84;75.69;98331.47;5014682;28;20044;-70
2021/10/21 09:14:41;;;;;;;8.93;4.63;;;;;;;11.88;75.86;98349.47;5014802;28;20057;-67
2021/10/21 09:17:09;;;;;;;9.63;4.07;;;;;;;11.82;74.41;98345.03;5014746;28;20126;-66
2021/10/21 09:19:35;;;;;;;4.95;3.58;;;;;;;11.80;74.20;98341.78;5014640;28;20057;-65
2021/10/21 09:22:04;;;;;;;3.47;3.00;;;;;;;11.69;74.18;98337.22;5014057;28;20076;-67
2021/10/21 09:24:32;;;;;;;10.20;3.47;;;;;;;11.66;73.77;98346.50;5014581;28;20389;-67
2021/10/21 09:27:00;;;;;;;6.72;3.70;;;;;;;11.63;73.27;98354.94;5013684;28;20053;-66
2021/10/21 09:29:26;;;;;;;6.65;4.28;;;;;;;11.57;73.58;98342.53;5014798;28;20034;-67
2021/10/21 09:32:07;;;;;;;6.77;3.40;;;;;;;11.68;74.43;98356.94;5014440;28;20588;-67
2021/10/21 09:34:46;;;;;;;5.27;2.90;;;;;;;11.67;74.31;98341.97;5014881;28;20069;-69
2021/10/21 09:37:17;;;;;;;6.97;4.47;;;;;;;11.67;73.84;98357.97;5014493;28;20042;-65
2021/10/21 09:39:51;;;;;;;9.40;3.70;;;;;;;11.61;73.39;98364.22;5014522;28;20049;-67
2021/10/21 09:42:18;;;;;;;9.60;2.90;;;;;;;11.58;73.60;98364.69;5014290;28;20057;-70
2021/10/21 09:44:45;;;;;;;7.30;2.93;;;;;;;11.49;73.31;98354.31;5014330;28;20113;-63
2021/10/21 09:47:19;;;;;;;13.27;3.83;;;;;;;11.38;73.32;98348.97;5013632;28;20077;-65
2021/10/21 09:49:47;;;;;;;8.57;3.13;;;;;;;11.33;73.15;98349.63;5012919;28;20081;-64
2021/10/21 09:52:18;;;;;;;6.75;2.53;;;;;;;11.30;73.03;98347.44;5014119;28;20040;-66
2021/10/21 09:54:45;;;;;;;10.40;3.97;;;;;;;11.25;73.06;98354.44;5013933;28;20414;-73
2021/10/21 09:57:18;;;;;;;5.33;2.80;;;;;;;11.28;73.52;98365.50;5014209;28;20401;-71
2021/10/21 09:59:58;;;;;;;6.83;3.30;;;;;;;11.15;73.97;98339.00;5013388;28;20296;-71
2021/10/21 10:02:24;;;;;;;7.23;3.73;;;;;;;11.30;73.71;98365.28;5013224;28;20065;-69
2021/10/21 10:04:54;;;;;;;8.93;3.27;;;;;;;11.30;73.93;98366.09;5013535;28;20042;-71
2021/10/21 10:07:22;;;;;;;7.73;3.70;;;;;;;11.30;73.69;98383.91;5014450;28;20041;-71
2021/10/21 10:09:48;;;;;;;5.10;3.07;;;;;;;11.36;73.71;98394.50;5014768;28;20069;-78
2021/10/21 10:12:18;;;;;;;5.83;3.03;;;;;;;11.32;73.88;98364.00;5014554;28;20527;-76
2021/10/21 10:14:46;;;;;;;5.67;3.70;;;;;;;11.38;74.17;98365.75;5014406;28;20060;-71
2021/10/21 10:17:14;;;;;;;10.33;4.33;;;;;;;11.56;74.60;98372.06;5013793;28;20061;-69
2021/10/21 10:19:44;;;;;;;;;;;;;;;11.76;73.93;98367.25;5013931;28;20042;-69
2021/10/21 10:22:14;;;;;;;6.70;4.10;;;;;;;11.59;73.79;98340.47;5013633;28;19924;-71
2021/10/21 10:24:40;;;;;;;9.20;3.63;;;;;;;11.84;74.04;98366.94;5013303;28;20033;-68
2021/10/21 10:27:51;;;;;;;7.87;3.53;;;;;;;12.00;72.78;98376.16;5013485;28;20123;-74
2021/10/21 10:30:47;;;;;;;9.33;5.27;;;;;;;12.03;71.46;98384.50;4994709;28;20107;-76
2021/10/21 10:33:42;;;;;;;5.97;2.93;;;;;;;12.04;70.90;98390.66;5013489;28;20045;-73
2021/10/21 10:36:28;;;;;;;4.43;2.73;;;;;;;12.02;70.14;98387.41;5013254;28;20088;-74
2021/10/21 10:39:06;;;;;;;5.20;3.63;;;;;;;12.04;69.91;98391.47;5013473;28;20412;-72
2021/10/21 10:41:41;;;;;;;3.53;2.63;;;;;;;12.14;69.99;98395.41;5013489;28;20034;-71
2021/10/21 10:44:07;;;;;;;5.27;2.93;;;;;;;12.12;69.99;98386.84;5013251;28;20036;-75
2021/10/21 10:47:02;;;;;;;7.13;4.60;;;;;;;12.16;70.99;98390.69;5013081;28;20041;-71
2021/10/21 10:49:37;;;;;;;7.67;2.93;;;;;;;12.19;70.36;98377.69;5004442;28;20046;-72
2021/10/21 10:52:11;;;;;;;4.20;2.57;;;;;;;12.06;70.21;98373.38;5013113;28;20556;-73
2021/10/21 10:54:39;;;;;;;6.33;4.30;;;;;;;12.12;70.45;98384.16;5016012;28;20037;-74
2021/10/21 10:57:06;;;;;;;11.88;8.70;;;;;;;12.09;70.96;98383.59;5012962;28;20129;-68
2021/10/21 10:59:33;;;;;;;11.50;6.33;;;;;;;12.03;70.98;98371.16;5012915;28;20125;-72
2021/10/21 11:02:20;;;;;;;7.93;3.17;;;;;;;12.21;70.83;98390.81;5012592;28;20025;-72
2021/10/21 11:05:06;;;;;;;6.67;3.63;;;;;;;12.23;70.92;98384.19;5013351;28;20057;-71
2021/10/21 11:10:53;;;;;;;4.47;3.00;;;;;;;12.35;69.72;98363.66;5013044;28;20073;-68
2021/10/21 11:13:39;;;;;;;3.27;2.37;;;;;;;12.65;68.74;98371.53;5012904;28;20584;-70
2021/10/21 11:16:43;;;;;;;6.60;3.77;;;;;;;12.71;68.31;98359.09;5012151;28;20054;-71
2021/10/21 11:19:10;;;;;;;8.03;2.97;;;;;;;12.53;68.95;98324.53;5011213;28;20157;-68
2021/10/21 11:21:52;;;;;;;6.53;3.33;;;;;;;12.69;69.03;98363.84;5012731;28;20073;-67
2021/10/21 11:25:00;;;;;;;8.13;3.13;;;;;;;12.71;69.13;98373.25;5013270;28;20121;-68
2021/10/21 11:27:31;;;;;;;7.88;3.35;;;;;;;12.79;69.60;98360.59;4971173;28;20038;-69
2021/10/21 11:30:19;;;;;;;8.77;4.00;;;;;;;12.74;69.64;98379.19;4971688;28;20035;-76
2021/10/21 11:32:46;;;;;;;8.40;3.92;;;;;;;12.55;70.44;98363.31;5000641;28;20073;-71
2021/10/21 11:35:23;;;;;;;8.20;4.00;;;;;;;12.58;70.50;98378.84;5012721;28;20041;-69
2021/10/21 11:37:51;;;;;;;8.03;3.60;;;;;;;12.56;70.62;98380.94;5013129;28;20042;-73
2021/10/21 11:40:34;;;;;;;6.55;3.30;;;;;;;12.59;70.01;98371.66;5011673;28;20068;-77
2021/10/21 11:43:03;;;;;;;7.27;2.93;;;;;;;12.45;69.73;98327.56;5012221;28;20122;-68